createdAt,value
2022-08-09T00:02:11.850Z,24.30
2022-08-09T00:18:04.539Z,24.30
2022-08-09T00:32:34.872Z,24.20
2022-08-09T00:47:39.850Z,24.20
2022-08-09T01:02:41.417Z,24.10
2022-08-09T01:17:42.923Z,24.10
2022-08-09T01:32:46.386Z,24.00
2022-08-09T01:47:49.790Z,24.00
2022-08-09T02:02:51.377Z,24.00
2022-08-09T02:18:09.290Z,24.00
2022-08-09T02:33:14.432Z,23.80
2022-08-09T02:48:29.727Z,23.90
2022-08-09T03:04:12.591Z,23.80
2022-08-09T03:18:55.766Z,23.80
2022-08-09T03:33:58.106Z,23.80
2022-08-09T03:48:59.632Z,23.70
2022-08-09T04:04:09.953Z,23.70
2022-08-09T04:19:42.799Z,23.70
2022-08-09T04:34:37.847Z,23.60
2022-08-09T04:49:53.606Z,23.60
2022-08-09T05:04:56.751Z,23.60
2022-08-09T05:19:59.827Z,23.60
2022-08-09T05:35:01.324Z,23.60
2022-08-09T05:50:30.150Z,23.70
2022-08-09T06:05:30.614Z,23.70
2022-08-09T06:20:54.087Z,23.70
2022-08-09T06:35:58.258Z,23.80
2022-08-09T06:51:00.193Z,23.80
2022-08-09T07:06:03.815Z,24.00
2022-08-09T07:21:07.745Z,24.00
2022-08-09T07:36:09.556Z,24.00
2022-08-09T07:52:05.786Z,24.00
2022-08-09T08:06:33.065Z,24.10
2022-08-09T08:21:39.810Z,24.20
2022-08-09T08:36:52.359Z,24.30
2022-08-09T08:52:00.131Z,24.40
2022-08-09T09:07:03.014Z,24.50
2022-08-09T09:22:07.870Z,24.70
2022-08-09T09:37:13.254Z,24.80
2022-08-09T09:52:16.259Z,24.90
2022-08-09T10:07:34.825Z,25.10
2022-08-09T10:22:36.459Z,25.20
2022-08-09T10:37:38.381Z,25.30
2022-08-09T10:52:42.813Z,25.40
2022-08-09T11:07:56.725Z,25.60
2022-08-09T11:22:59.532Z,25.70
2022-08-09T11:38:01.223Z,25.80
2022-08-09T11:53:57.861Z,26.00
2022-08-09T12:08:24.574Z,26.10
2022-08-09T12:23:56.367Z,26.20
2022-08-09T12:38:47.951Z,26.40
2022-08-09T12:53:52.784Z,26.50
2022-08-09T13:08:54.639Z,26.60
2022-08-09T13:24:15.846Z,26.60
2022-08-09T13:41:55.277Z,26.70
2022-08-09T13:54:41.746Z,26.70
2022-08-09T14:09:44.641Z,26.60
2022-08-09T14:24:53.285Z,26.60
2022-08-09T14:39:55.319Z,26.60
2022-08-09T14:54:58.491Z,26.60
2022-08-09T15:10:07.522Z,26.50
2022-08-09T15:25:12.873Z,26.50
2022-08-09T15:40:15.964Z,26.40
2022-08-09T15:55:21.640Z,26.40
2022-08-09T16:10:54.628Z,26.40
2022-08-09T16:25:44.588Z,26.40
2022-08-09T16:40:51.451Z,26.40
2022-08-09T16:55:59.068Z,26.30
2022-08-09T17:11:04.122Z,26.30
2022-08-09T17:26:05.607Z,26.30
2022-08-09T17:41:09.109Z,26.30
2022-08-09T17:56:10.807Z,26.30
2022-08-09T18:11:16.204Z,26.20
2022-08-09T18:26:18.020Z,26.20
2022-08-09T18:41:19.970Z,26.20
2022-08-09T18:56:29.021Z,26.10
2022-08-09T19:11:37.716Z,26.00
2022-08-09T19:26:39.961Z,26.00
2022-08-09T19:41:42.539Z,25.90
2022-08-09T19:56:46.187Z,25.80
2022-08-09T20:11:51.927Z,25.70
2022-08-09T20:26:54.802Z,25.60
2022-08-09T20:41:58.661Z,25.50
2022-08-09T20:57:00.157Z,25.50
2022-08-09T21:27:50.440Z,25.30
2022-08-09T21:42:28.964Z,25.20
2022-08-09T21:57:38.585Z,25.10
2022-08-09T22:12:52.512Z,25.10
2022-08-09T22:27:54.005Z,25.00
2022-08-09T22:42:59.927Z,24.90
2022-08-09T22:58:02.192Z,24.80
2022-08-09T23:13:06.465Z,24.80
2022-08-09T23:28:16.153Z,24.70
2022-08-09T23:43:17.771Z,24.70
2022-08-09T23:58:25.910Z,24.60
